Time;durP1;ratioP1;P1;durP2;ratioP2;P2;SDS_P1;SDS_P2;PMS_P1;PMS_P2;Temp;Humidity;BMP_temperature;BMP_pressure;BME280_temperature;BME280_humidity;BME280_pressure;Samples;Min_cycle;Max_cycle;Signal;HPM_P1;HPM_P2
2022/07/19 00:00:23;;;;;;;7.40;2.88;;;13.80;99.90;;;;;;5052181;28;20040;-51
2022/07/19 00:02:48;;;;;;;3.60;2.70;;;13.80;99.90;;;;;;5052790;28;20403;-54
2022/07/19 00:05:14;;;;;;;4.82;2.58;;;13.80;99.90;;;;;;5051498;28;20060;-54
2022/07/19 00:07:46;;;;;;;6.45;2.67;;;13.80;99.90;;;;;;5051877;28;20024;-48
2022/07/19 00:10:14;;;;;;;3.83;2.13;;;13.80;99.90;;;;;;5050798;28;20075;-52
2022/07/19 00:12:40;;;;;;;4.07;2.72;;;13.80;99.90;;;;;;5051744;28;20035;-53
2022/07/19 00:15:09;;;;;;;8.32;2.58;;;13.80;99.90;;;;;;5050504;28;20021;-51
2022/07/19 00:17:40;;;;;;;6.55;2.35;;;13.70;99.90;;;;;;5051786;28;20419;-55
2022/07/19 00:20:07;;;;;;;8.52;2.83;;;13.70;99.90;;;;;;5051564;28;20025;-52
2022/07/19 00:22:33;;;;;;;4.22;2.80;;;13.70;99.90;;;;;;5052806;28;20025;-52
2022/07/19 00:24:59;;;;;;;3.70;2.70;;;13.70;99.90;;;;;;5051674;28;20059;-52
2022/07/19 00:27:24;;;;;;;11.75;3.35;;;13.60;99.90;;;;;;5051864;28;20372;-53
2022/07/19 00:29:50;;;;;;;5.93;3.10;;;13.50;99.90;;;;;;5051629;28;20031;-51
2022/07/19 00:32:16;;;;;;;5.28;2.75;;;13.50;99.90;;;;;;5051437;28;20402;-54
2022/07/19 00:34:41;;;;;;;4.68;2.58;;;13.50;99.90;;;;;;5051528;28;20488;-54
2022/07/19 00:37:07;;;;;;;4.45;2.75;;;13.40;99.90;;;;;;5051609;28;20025;-52
2022/07/19 00:39:33;;;;;;;2.63;2.42;;;13.50;99.90;;;;;;5051368;28;20527;-56
2022/07/19 00:41:59;;;;;;;6.28;3.80;;;13.40;99.90;;;;;;5051179;28;20033;-51
2022/07/19 00:44:24;;;;;;;8.38;2.78;;;13.40;99.90;;;;;;5051327;28;20043;-53
2022/07/19 00:46:50;;;;;;;7.47;2.72;;;13.40;99.90;;;;;;5051255;28;20021;-54
2022/07/19 00:49:16;;;;;;;7.32;2.90;;;13.40;99.90;;;;;;5050084;28;20363;-56
2022/07/19 00:51:43;;;;;;;11.25;3.17;;;13.30;99.90;;;;;;5067387;28;20021;-54
2022/07/19 00:54:11;;;;;;;5.57;3.15;;;13.30;99.90;;;;;;5070898;28;20403;-54
2022/07/19 00:56:38;;;;;;;5.90;2.58;;;13.30;99.90;;;;;;5071091;28;20023;-54
2022/07/19 00:59:04;;;;;;;11.93;2.60;;;13.30;99.90;;;;;;5071385;28;20053;-55
2022/07/19 01:01:31;;;;;;;5.75;3.03;;;13.30;99.90;;;;;;5069969;28;20526;-53
2022/07/19 01:03:58;;;;;;;8.80;3.08;;;13.20;99.90;;;;;;5071164;28;20384;-55
2022/07/19 01:06:24;;;;;;;6.68;2.92;;;13.10;99.90;;;;;;5070807;28;20029;-56
2022/07/19 01:08:50;;;;;;;6.63;3.13;;;13.10;99.90;;;;;;5071131;28;20372;-52
2022/07/19 01:11:15;;;;;;;3.67;2.80;;;13.10;99.90;;;;;;5071353;28;20028;-52
2022/07/19 01:13:41;;;;;;;7.32;3.25;;;13.00;99.90;;;;;;5071058;28;20070;-52
2022/07/19 01:16:07;;;;;;;5.75;3.17;;;13.00;99.90;;;;;;5072376;28;20483;-53
2022/07/19 01:18:33;;;;;;;8.27;3.67;;;13.00;99.90;;;;;;5075079;28;20459;-52
2022/07/19 01:21:00;;;;;;;3.30;3.00;;;13.00;99.90;;;;;;5060100;28;20025;-55
2022/07/19 01:23:26;;;;;;;6.28;3.17;;;13.00;99.90;;;;;;5055238;28;20091;-51
2022/07/19 01:25:52;;;;;;;9.73;2.92;;;13.00;99.90;;;;;;5055027;28;20029;-54
2022/07/19 01:28:17;;;;;;;6.80;3.03;;;12.90;99.90;;;;;;5055082;28;20025;-53
2022/07/19 01:30:43;;;;;;;8.40;3.42;;;12.90;99.90;;;;;;5054409;28;20093;-54
2022/07/19 01:33:09;;;;;;;7.72;3.33;;;12.90;99.90;;;;;;5054652;28;20029;-52
2022/07/19 01:35:34;;;;;;;7.18;2.95;;;12.90;99.90;;;;;;5053495;28;20443;-52
2022/07/19 01:38:00;;;;;;;11.13;3.08;;;12.90;99.90;;;;;;5071949;28;20085;-53
2022/07/19 01:40:26;;;;;;;16.95;3.80;;;12.90;99.90;;;;;;5074874;28;20047;-57
2022/07/19 01:42:53;;;;;;;7.53;4.00;;;12.80;99.90;;;;;;5074897;28;20467;-56
2022/07/19 01:45:19;;;;;;;4.57;3.30;;;12.80;99.90;;;;;;5074349;28;20377;-50
2022/07/19 01:47:45;;;;;;;9.45;3.45;;;12.70;99.90;;;;;;5067761;28;20059;-53
2022/07/19 01:50:13;;;;;;;7.75;3.58;;;12.70;99.90;;;;;;5054801;28;20076;-56
2022/07/19 01:52:39;;;;;;;7.82;3.88;;;12.80;99.90;;;;;;5055551;28;20060;-57
2022/07/19 01:55:06;;;;;;;4.57;2.92;;;12.80;99.90;;;;;;5054188;28;20087;-54
2022/07/19 01:57:32;;;;;;;5.88;4.00;;;12.80;99.90;;;;;;5054711;28;20056;-53
2022/07/19 01:59:58;;;;;;;9.23;3.30;;;12.70;99.90;;;;;;5054287;28;20033;-53
2022/07/19 02:02:24;;;;;;;13.00;3.25;;;12.70;99.90;;;;;;5054444;28;20623;-52
2022/07/19 02:04:50;;;;;;;10.40;3.35;;;12.70;99.90;;;;;;5054138;28;20025;-52
2022/07/19 02:07:16;;;;;;;8.45;3.53;;;12.70;99.90;;;;;;5054182;28;20039;-54
2022/07/19 02:09:41;;;;;;;6.90;3.03;;;12.70;99.90;;;;;;5071520;28;20036;-54
2022/07/19 02:12:07;;;;;;;9.40;3.17;;;12.70;99.90;;;;;;5074237;28;20013;-53
2022/07/19 02:14:33;;;;;;;13.50;3.58;;;12.60;99.90;;;;;;5074402;28;20072;-56
2022/07/19 02:16:59;;;;;;;10.45;3.20;;;12.60;99.90;;;;;;5074147;28;20032;-55
2022/07/19 02:19:24;;;;;;;20.65;4.53;;;12.50;99.90;;;;;;5074268;28;20451;-53
2022/07/19 02:21:50;;;;;;;14.32;4.00;;;12.50;99.90;;;;;;5074252;28;20021;-54
2022/07/19 02:24:16;;;;;;;9.82;3.20;;;12.50;99.90;;;;;;5057567;28;20059;-53
2022/07/19 02:26:42;;;;;;;5.53;3.58;;;12.50;99.90;;;;;;5053302;28;20052;-53
2022/07/19 02:29:07;;;;;;;12.68;4.05;;;12.50;99.90;;;;;;5053916;28;20036;-52
2022/07/19 02:31:34;;;;;;;5.35;3.20;;;12.50;99.90;;;;;;5053865;28;20025;-53
2022/07/19 02:34:00;;;;;;;9.15;4.03;;;12.50;99.90;;;;;;5053818;28;20372;-53
2022/07/19 02:36:26;;;;;;;8.55;3.38;;;12.50;99.90;;;;;;5060186;28;20032;-54
2022/07/19 02:38:52;;;;;;;13.80;3.72;;;12.50;99.90;;;;;;5073722;28;20579;-51
2022/07/19 02:41:17;;;;;;;4.38;3.10;;;12.50;99.90;;;;;;5073797;28;20025;-50
2022/07/19 02:43:43;;;;;;;11.35;3.55;;;12.50;99.90;;;;;;5072858;28;20052;-56
2022/07/19 02:46:09;;;;;;;9.43;3.45;;;12.40;99.90;;;;;;5073300;28;20024;-52
2022/07/19 02:48:35;;;;;;;8.55;3.20;;;12.40;99.90;;;;;;5073611;28;20096;-50
2022/07/19 02:51:00;;;;;;;10.40;3.28;;;12.40;99.90;;;;;;5073468;28;20032;-54
2022/07/19 02:53:26;;;;;;;7.95;3.25;;;12.40;99.90;;;;;;5073151;28;20033;-54
2022/07/19 02:55:52;;;;;;;20.02;4.10;;;12.30;99.90;;;;;;5073214;28;20048;-52
2022/07/19 02:58:18;;;;;;;11.65;3.90;;;12.30;99.90;;;;;;5068023;28;20116;-52
2022/07/19 03:00:44;;;;;;;22.58;3.72;;;12.30;99.90;;;;;;5053311;28;20033;-51
2022/07/19 03:05:55;;;;;;;13.85;4.03;;;12.30;99.90;;;;;;5052968;28;20076;-49
2022/07/19 03:08:21;;;;;;;15.80;3.80;;;12.20;99.90;;;;;;5053377;28;20032;-52
2022/07/19 03:10:46;;;;;;;21.65;4.65;;;12.20;99.90;;;;;;5053102;28;20021;-53
2022/07/19 03:13:12;;;;;;;13.63;3.28;;;12.20;99.90;;;;;;5053171;28;20052;-52
2022/07/19 03:15:38;;;;;;;8.82;3.90;;;12.20;99.90;;;;;;5052947;28;20357;-54
2022/07/19 03:18:04;;;;;;;9.35;3.50;;;12.20;99.90;;;;;;5052835;28;20033;-52
2022/07/19 03:20:30;;;;;;;8.05;3.67;;;12.10;99.90;;;;;;5053091;28;20025;-53
2022/07/19 03:22:56;;;;;;;9.55;3.00;;;12.20;99.90;;;;;;5052708;28;20024;-52
2022/07/19 03:25:21;;;;;;;8.15;4.03;;;12.20;99.90;;;;;;5052874;28;20103;-51
2022/07/19 03:27:48;;;;;;;17.77;3.83;;;12.10;99.90;;;;;;5071500;28;20530;-51
2022/07/19 03:30:13;;;;;;;7.57;3.90;;;12.10;99.90;;;;;;5072530;28;20020;-53
2022/07/19 03:32:39;;;;;;;4.40;3.75;;;12.10;99.90;;;;;;5072051;28;20356;-52
2022/07/19 03:35:05;;;;;;;7.13;3.67;;;12.10;99.90;;;;;;5072723;28;20420;-55
2022/07/19 03:37:31;;;;;;;18.27;4.68;;;12.10;99.90;;;;;;5072495;28;20021;-54
2022/07/19 03:39:57;;;;;;;20.17;3.75;;;12.10;99.90;;;;;;5071557;28;20162;-50
2022/07/19 03:42:22;;;;;;;16.63;4.05;;;12.10;99.90;;;;;;5054653;28;20028;-53
2022/07/19 03:44:48;;;;;;;30.08;4.13;;;12.10;99.90;;;;;;5052192;28;20040;-54
2022/07/19 03:47:14;;;;;;;16.63;3.60;;;12.10;99.90;;;;;;5053123;28;20033;-53
2022/07/19 03:49:39;;;;;;;11.43;3.75;;;12.10;99.90;;;;;;5052374;28;20023;-50
2022/07/19 03:52:05;;;;;;;9.77;4.40;;;12.20;99.90;;;;;;5052314;28;20051;-54
2022/07/19 03:54:31;;;;;;;7.88;3.97;;;12.10;99.90;;;;;;5052210;28;20055;-52
2022/07/19 03:56:56;;;;;;;7.40;3.40;;;12.20;99.90;;;;;;5052050;28;20029;-55
2022/07/19 03:59:25;;;;;;;7.78;4.10;;;12.20;99.90;;;;;;5052167;28;20434;-56
2022/07/19 04:01:51;;;;;;;6.78;3.67;;;12.40;99.90;;;;;;5051950;28;20032;-56
2022/07/19 04:04:17;;;;;;;9.48;3.85;;;12.40;99.90;;;;;;5052021;28;20060;-54
2022/07/19 04:06:43;;;;;;;4.07;3.63;;;12.40;99.90;;;;;;5051994;28;20027;-51
2022/07/19 04:09:09;;;;;;;5.63;4.07;;;12.40;99.90;;;;;;5051875;28;20029;-52
2022/07/19 04:11:38;;;;;;;7.65;3.80;;;12.50;99.90;;;;;;5070142;28;20032;-52
2022/07/19 04:14:04;;;;;;;7.93;3.25;;;12.60;99.90;;;;;;5072257;28;20426;-53
2022/07/19 04:16:30;;;;;;;9.90;4.63;;;12.60;99.90;;;;;;5071543;28;20017;-54
2022/07/19 04:18:56;;;;;;;6.97;4.18;;;12.60;99.90;;;;;;5071338;28;20028;-55
2022/07/19 04:21:22;;;;;;;13.88;4.32;;;12.70;99.90;;;;;;5071758;28;20403;-55
2022/07/19 04:23:47;;;;;;;13.70;3.90;;;12.80;99.90;;;;;;5071248;28;20058;-51
2022/07/19 04:26:13;;;;;;;9.90;3.83;;;12.90;99.90;;;;;;5053813;28;20121;-53
2022/07/19 04:28:39;;;;;;;12.52;3.67;;;13.00;99.90;;;;;;5051620;28;20044;-54
2022/07/19 04:31:04;;;;;;;10.40;3.65;;;13.20;99.90;;;;;;5051331;28;20031;-53
2022/07/19 04:33:30;;;;;;;5.82;3.60;;;13.30;99.90;;;;;;5051621;28;20025;-55
2022/07/19 04:35:56;;;;;;;8.98;3.88;;;13.40;99.90;;;;;;5051303;28;20025;-51
2022/07/19 04:38:21;;;;;;;13.77;4.00;;;13.50;99.90;;;;;;5060261;28;20037;-54
2022/07/19 04:40:47;;;;;;;15.70;4.53;;;13.60;99.90;;;;;;5070937;28;20146;-54
2022/07/19 04:43:13;;;;;;;15.82;4.18;;;13.70;99.90;;;;;;5071478;28;20032;-54
2022/07/19 04:45:44;;;;;;;7.50;3.80;;;13.80;99.90;;;;;;5069879;28;20056;-52
2022/07/19 04:48:13;;;;;;;11.65;3.67;;;13.90;99.90;;;;;;5071402;28;20048;-54
2022/07/19 04:50:39;;;;;;;12.55;4.10;;;14.00;99.90;;;;;;5071379;28;20400;-54
2022/07/19 04:53:06;;;;;;;5.35;3.90;;;14.20;99.90;;;;;;5071140;28;20093;-56
2022/07/19 04:55:32;;;;;;;4.70;3.67;;;14.40;99.90;;;;;;5071143;28;20098;-56
2022/07/19 04:57:57;;;;;;;9.43;3.22;;;14.50;99.90;;;;;;5071260;28;20119;-56
2022/07/19 05:00:23;;;;;;;6.93;3.20;;;14.60;99.90;;;;;;5071479;28;20031;-54
2022/07/19 05:02:48;;;;;;;12.80;4.03;;;14.60;99.90;;;;;;5071365;28;20031;-51
2022/07/19 05:05:14;;;;;;;6.63;3.55;;;14.50;99.90;;;;;;5071352;28;20052;-56
2022/07/19 05:07:41;;;;;;;15.07;4.32;;;14.60;99.90;;;;;;5062250;28;20037;-53
2022/07/19 05:10:07;;;;;;;6.43;3.67;;;14.50;99.90;;;;;;5050962;28;20029;-55
2022/07/19 05:12:33;;;;;;;13.48;3.30;;;14.70;99.90;;;;;;5050950;28;20027;-54
2022/07/19 05:14:59;;;;;;;3.55;3.25;;;14.90;99.90;;;;;;5051339;28;20029;-55
2022/07/19 05:17:25;;;;;;;7.47;3.80;;;15.10;99.90;;;;;;5050972;28;20035;-54
2022/07/19 05:19:51;;;;;;;6.53;2.90;;;15.30;99.90;;;;;;5051018;28;20032;-50
2022/07/19 05:22:16;;;;;;;10.38;4.00;;;15.40;99.90;;;;;;5048060;28;20424;-53
2022/07/19 05:24:42;;;;;;;6.75;3.47;;;15.50;99.90;;;;;;5048339;28;20025;-54
2022/07/19 05:27:08;;;;;;;4.53;3.30;;;15.60;99.90;;;;;;5050446;28;20029;-53
2022/07/19 05:29:33;;;;;;;3.88;3.25;;;15.70;99.90;;;;;;5051302;28;20059;-54
2022/07/19 05:31:59;;;;;;;6.13;3.83;;;15.80;99.90;;;;;;5051511;28;20029;-51
2022/07/19 05:34:25;;;;;;;5.20;3.40;;;15.90;99.90;;;;;;5063914;28;20029;-55
2022/07/19 05:36:50;;;;;;;4.30;3.35;;;16.00;99.90;;;;;;5070643;28;20063;-53
2022/07/19 05:39:16;;;;;;;7.07;3.20;;;16.10;99.90;;;;;;5070896;28;20024;-56
2022/07/19 05:41:42;;;;;;;3.47;3.15;;;16.30;99.90;;;;;;5070646;28;20429;-52
2022/07/19 05:44:08;;;;;;;8.88;3.60;;;16.40;99.90;;;;;;5070932;28;20151;-55
2022/07/19 05:46:37;;;;;;;27.70;4.72;;;16.60;99.90;;;;;;5071462;28;20116;-54
2022/07/19 05:49:02;;;;;;;9.60;4.40;;;16.70;99.90;;;;;;5072111;28;20055;-56
2022/07/19 05:51:28;;;;;;;7.97;3.70;;;16.80;99.90;;;;;;5055794;28;20053;-53
2022/07/19 05:53:54;;;;;;;6.30;4.20;;;16.90;99.90;;;;;;5070335;28;20056;-50
2022/07/19 05:56:19;;;;;;;8.13;3.72;;;17.10;99.90;;;;;;5070623;28;20639;-50
2022/07/19 05:58:45;;;;;;;11.23;3.60;;;17.30;99.90;;;;;;5070572;28;20479;-50
2022/07/19 06:01:22;;;;;;;11.80;3.50;;;17.50;99.90;;;;;;5070241;28;20039;-53
2022/07/19 06:03:50;;;;;;;7.30;3.10;;;17.70;99.90;;;;;;5073422;28;20067;-55
2022/07/19 06:06:16;;;;;;;8.95;3.05;;;18.00;99.90;;;;;;5056583;28;20036;-53
2022/07/19 06:08:42;;;;;;;6.78;3.70;;;18.20;99.90;;;;;;5073873;28;20044;-52
2022/07/19 06:11:08;;;;;;;14.52;4.10;;;18.40;99.90;;;;;;5074198;28;20020;-55
2022/07/19 06:13:34;;;;;;;5.13;2.92;;;18.70;99.90;;;;;;5074678;28;20095;-51
2022/07/19 06:16:00;;;;;;;5.35;3.10;;;18.90;99.90;;;;;;5074513;28;20090;-52
2022/07/19 06:18:26;;;;;;;7.90;2.75;;;19.00;99.90;;;;;;5073850;28;20029;-52
2022/07/19 06:20:51;;;;;;;7.95;3.17;;;19.10;99.90;;;;;;5073474;28;20434;-54
2022/07/19 06:23:17;;;;;;;10.10;3.40;;;19.20;99.90;;;;;;5062207;28;20020;-52
2022/07/19 06:25:43;;;;;;;4.95;2.65;;;19.30;99.90;;;;;;5073835;28;20123;-53
2022/07/19 06:28:08;;;;;;;4.75;2.78;;;19.40;99.90;;;;;;5073657;28;20032;-54
2022/07/19 06:30:34;;;;;;;6.88;2.80;;;19.60;99.90;;;;;;5073403;28;20021;-53
2022/07/19 06:32:59;;;;;;;5.53;3.03;;;19.70;99.90;;;;;;5073834;28;20444;-56
2022/07/19 06:35:25;;;;;;;9.35;2.80;;;19.80;99.90;;;;;;5073821;28;20169;-56
2022/07/19 06:37:51;;;;;;;4.32;2.58;;;19.90;99.90;;;;;;5056434;28;20048;-55
2022/07/19 06:40:17;;;;;;;5.10;2.75;;;19.90;99.90;;;;;;5053564;28;20036;-53
2022/07/19 06:42:42;;;;;;;3.40;2.65;;;20.00;99.90;;;;;;5053406;28;20025;-55
2022/07/19 06:45:09;;;;;;;7.20;3.00;;;20.20;99.90;;;;;;5053445;28;20025;-57
2022/07/19 06:47:34;;;;;;;11.48;3.35;;;20.20;99.90;;;;;;5053414;28;20060;-54
2022/07/19 06:50:00;;;;;;;10.15;3.30;;;20.30;99.90;;;;;;5053518;28;20045;-57
2022/07/19 06:52:26;;;;;;;10.27;3.08;;;20.40;99.90;;;;;;5068359;28;20023;-54
2022/07/19 06:54:52;;;;;;;7.38;3.15;;;20.50;99.90;;;;;;5072640;28;20056;-54
2022/07/19 06:57:18;;;;;;;9.98;3.40;;;20.60;99.90;;;;;;5073725;28;20082;-55
2022/07/19 06:59:43;;;;;;;3.00;2.67;;;20.60;99.90;;;;;;5073133;28;20028;-51
2022/07/19 07:02:09;;;;;;;13.45;4.10;;;20.60;99.90;;;;;;5073368;28;20078;-56
2022/07/19 07:04:35;;;;;;;5.70;2.55;;;20.70;99.90;;;;;;5073193;28;20028;-57
2022/07/19 07:07:01;;;;;;;4.32;2.67;;;20.80;99.90;;;;;;5062870;28;20524;-52
2022/07/19 07:09:26;;;;;;;4.22;2.45;;;20.90;99.90;;;;;;5053536;28;20033;-57
2022/07/19 07:11:52;;;;;;;3.45;2.60;;;21.00;99.90;;;;;;5073078;28;20100;-58
2022/07/19 07:14:18;;;;;;;8.15;3.00;;;21.10;99.90;;;;;;5073417;28;20383;-57
2022/07/19 07:16:44;;;;;;;8.75;3.42;;;21.20;99.90;;;;;;5071473;28;20032;-58
2022/07/19 07:19:09;;;;;;;6.63;2.55;;;21.30;99.80;;;;;;5073011;28;20371;-55
2022/07/19 07:21:35;;;;;;;4.55;2.50;;;21.50;99.90;;;;;;5072849;28;20111;-54
2022/07/19 07:24:02;;;;;;;4.82;3.20;;;21.60;99.90;;;;;;5072720;28;20379;-53
2022/07/19 07:26:27;;;;;;;4.78;2.55;;;21.70;99.90;;;;;;5072647;28;20020;-57
2022/07/19 07:28:53;;;;;;;3.85;3.50;;;21.80;99.90;;;;;;5072723;28;20086;-55
2022/07/19 07:31:19;;;;;;;3.50;2.67;;;22.00;99.90;;;;;;5072702;28;20077;-55
2022/07/19 07:33:44;;;;;;;3.85;2.85;;;22.20;99.30;;;;;;5072531;28;20028;-57
2022/07/19 07:36:10;;;;;;;4.65;2.85;;;22.30;99.80;;;;;;5072781;28;20031;-56
2022/07/19 07:38:36;;;;;;;7.82;3.72;;;22.30;99.20;;;;;;5066163;28;20483;-54
2022/07/19 07:41:04;;;;;;;10.52;3.67;;;22.40;99.30;;;;;;5052668;28;20384;-55
2022/07/19 07:43:29;;;;;;;8.75;2.90;;;22.50;99.40;;;;;;5052714;28;20031;-52
2022/07/19 07:45:55;;;;;;;8.30;3.42;;;22.60;99.20;;;;;;5052236;28;20032;-53
2022/07/19 07:48:21;;;;;;;3.35;2.38;;;22.80;99.30;;;;;;5052101;28;20040;-51
2022/07/19 07:50:47;;;;;;;6.97;3.40;;;22.90;97.70;;;;;;5051962;28;20025;-55
2022/07/19 07:53:12;;;;;;;7.18;3.17;;;22.90;98.20;;;;;;5057053;28;20024;-55
2022/07/19 07:55:41;;;;;;;6.03;3.38;;;22.80;97.60;;;;;;5070795;28;20561;-54
2022/07/19 07:58:11;;;;;;;4.75;3.05;;;22.90;98.30;;;;;;5072426;28;20457;-53
2022/07/19 08:00:38;;;;;;;6.25;3.08;;;23.00;99.10;;;;;;5072179;28;20422;-57
2022/07/19 08:03:04;;;;;;;4.70;2.85;;;23.10;98.00;;;;;;5053788;28;20025;-52
2022/07/19 08:05:31;;;;;;;4.68;3.33;;;23.00;97.40;;;;;;5050540;28;20385;-55
2022/07/19 08:07:57;;;;;;;4.65;2.60;;;23.20;97.80;;;;;;5051889;28;20025;-55
2022/07/19 08:10:25;;;;;;;9.50;2.33;;;23.40;97.80;;;;;;5051895;28;20099;-55
2022/07/19 08:12:51;;;;;;;7.30;3.00;;;23.60;97.30;;;;;;5051380;28;20029;-53
2022/07/19 08:15:18;;;;;;;4.88;2.88;;;23.70;97.10;;;;;;5052205;28;20035;-55
2022/07/19 08:17:43;;;;;;;4.15;2.78;;;23.70;96.20;;;;;;5051296;28;20036;-58
2022/07/19 08:20:09;;;;;;;8.20;4.85;;;23.90;95.90;;;;;;5051298;28;20045;-56
2022/07/19 08:22:35;;;;;;;2.78;2.40;;;24.00;96.50;;;;;;5051411;28;20029;-56
2022/07/19 08:25:01;;;;;;;28.05;3.78;;;24.00;95.70;;;;;;5051138;28;20526;-53
2022/07/19 08:27:27;;;;;;;7.25;2.92;;;24.20;95.60;;;;;;5051651;28;20068;-56
2022/07/19 08:29:52;;;;;;;10.30;2.80;;;24.30;95.00;;;;;;5050055;28;20082;-56
2022/07/19 08:32:18;;;;;;;3.03;2.53;;;24.30;94.50;;;;;;5060945;28;20052;-58
2022/07/19 08:34:44;;;;;;;4.32;2.58;;;24.40;95.20;;;;;;5071428;28;20032;-57
2022/07/19 08:37:09;;;;;;;8.57;3.38;;;24.50;93.70;;;;;;5071605;28;20052;-57
2022/07/19 08:39:35;;;;;;;7.68;2.72;;;24.70;93.30;;;;;;5071492;28;20082;-57
2022/07/19 08:42:01;;;;;;;9.52;2.42;;;24.70;93.40;;;;;;5071438;28;20539;-57
2022/07/19 08:44:28;;;;;;;2.38;2.17;;;24.70;93.10;;;;;;5071552;28;20032;-58
2022/07/19 08:46:54;;;;;;;6.63;2.30;;;24.90;92.70;;;;;;5061840;28;20029;-54
2022/07/19 08:49:21;;;;;;;7.05;3.15;;;25.00;92.90;;;;;;5051768;28;20021;-53
2022/07/19 08:51:48;;;;;;;5.63;2.55;;;25.10;92.40;;;;;;5063364;28;20020;-57
2022/07/19 08:54:15;;;;;;;14.07;3.30;;;25.10;92.70;;;;;;5071195;28;20484;-58
2022/07/19 08:59:24;;;;;;;7.43;2.75;;;25.40;93.90;;;;;;5071801;28;20035;-52
2022/07/19 09:01:50;;;;;;;8.40;2.55;;;25.40;91.50;;;;;;5057133;28;20025;-58
2022/07/19 09:04:19;;;;;;;14.00;3.58;;;25.60;91.70;;;;;;5050918;28;20040;-58
2022/07/19 09:06:45;;;;;;;5.38;2.67;;;25.70;91.90;;;;;;5051425;28;20103;-52
2022/07/19 09:09:13;;;;;;;5.78;1.88;;;25.90;91.30;;;;;;5051248;28;20112;-54
2022/07/19 09:11:48;;;;;;;7.18;2.33;;;26.00;91.70;;;;;;5050984;28;20070;-58
2022/07/19 09:14:14;;;;;;;7.18;2.42;;;26.00;92.00;;;;;;5051046;28;20076;-54
2022/07/19 09:17:01;;;;;;;4.93;2.08;;;26.10;90.30;;;;;;5050944;28;20025;-55
2022/07/19 09:19:29;;;;;;;7.32;2.40;;;26.30;90.40;;;;;;5051296;28;20108;-55
2022/07/19 09:22:06;;;;;;;5.18;2.10;;;26.30;87.80;;;;;;5064255;28;20649;-57
2022/07/19 09:24:35;;;;;;;7.95;2.50;;;26.60;89.10;;;;;;5070956;28;20538;-58
2022/07/19 09:27:04;;;;;;;8.35;2.60;;;26.60;86.40;;;;;;5070710;28;20025;-53
2022/07/19 09:29:32;;;;;;;4.65;2.40;;;26.60;89.70;;;;;;5071079;28;20025;-57
2022/07/19 09:32:04;;;;;;;6.25;2.55;;;26.60;88.30;;;;;;5070791;28;20013;-56
2022/07/19 09:34:42;;;;;;;8.40;2.40;;;26.70;88.50;;;;;;5070941;28;20021;-53
2022/07/19 09:37:16;;;;;;;12.30;2.53;;;27.30;88.70;;;;;;5054360;28;20275;-54
2022/07/19 09:39:45;;;;;;;7.57;2.38;;;27.40;87.60;;;;;;5054774;28;20590;-56
2022/07/19 09:42:17;;;;;;;12.10;2.55;;;27.50;85.90;;;;;;5054837;28;20416;-57
2022/07/19 09:44:46;;;;;;;4.05;2.08;;;27.60;87.80;;;;;;5054624;28;20473;-58
2022/07/19 09:47:12;;;;;;;6.90;2.03;;;27.70;83.80;;;;;;5054696;28;20060;-57
2022/07/19 09:49:38;;;;;;;6.25;2.25;;;27.50;82.90;;;;;;5054741;28;20017;-56
2022/07/19 09:52:04;;;;;;;8.90;2.67;;;27.70;84.30;;;;;;5054838;28;20384;-53
2022/07/19 09:54:31;;;;;;;6.28;2.10;;;27.80;81.50;;;;;;5054413;28;20053;-56
2022/07/19 09:56:58;;;;;;;7.18;2.25;;;27.80;80.30;;;;;;5054576;28;20056;-58
2022/07/19 09:59:26;;;;;;;6.78;2.17;;;27.90;86.80;;;;;;5053094;28;20029;-57
2022/07/19 10:01:53;;;;;;;19.58;2.38;;;28.30;85.80;;;;;;5054664;28;20063;-58
2022/07/19 10:04:22;;;;;;;3.83;1.63;;;28.50;81.60;;;;;;5053999;28;20079;-55
2022/07/19 10:06:49;;;;;;;6.80;1.90;;;28.60;77.50;;;;;;5054150;28;20067;-55
2022/07/19 10:09:17;;;;;;;6.25;2.17;;;28.40;73.30;;;;;;5053946;28;20040;-54
2022/07/19 10:11:44;;;;;;;9.32;2.38;;;28.50;77.70;;;;;;5053941;28;20025;-56
2022/07/19 10:14:11;;;;;;;17.42;2.17;;;28.50;77.40;;;;;;5053722;28;20074;-58
2022/07/19 10:16:43;;;;;;;7.45;1.70;;;28.80;78.70;;;;;;5053803;28;20025;-59
2022/07/19 10:19:27;;;;;;;7.32;1.60;;;29.00;75.30;;;;;;5053733;28;20056;-54
2022/07/19 10:21:54;;;;;;;7.72;1.73;;;29.00;72.40;;;;;;5053406;28;20048;-55
2022/07/19 10:24:43;;;;;;;8.85;1.92;;;29.10;74.80;;;;;;5053516;28;20028;-59
2022/07/19 10:27:09;;;;;;;3.20;1.95;;;29.10;71.30;;;;;;5053627;28;20037;-58
2022/07/19 10:29:34;;;;;;;6.78;2.33;;;29.30;71.40;;;;;;5053769;28;20017;-56
2022/07/19 10:32:06;;;;;;;16.20;1.52;;;29.40;75.00;;;;;;5053565;28;20098;-59
2022/07/19 10:34:32;;;;;;;3.00;1.63;;;29.50;68.70;;;;;;5058306;28;20033;-53
2022/07/19 10:36:58;;;;;;;12.27;1.60;;;29.70;70.90;;;;;;5073840;28;20486;-57
2022/07/19 10:39:36;;;;;;;5.45;1.73;;;29.90;74.30;;;;;;5073629;28;20103;-56
2022/07/19 10:42:17;;;;;;;4.85;1.70;;;29.70;68.20;;;;;;5073699;28;20108;-55
2022/07/19 10:44:55;;;;;;;8.00;1.95;;;29.60;66.20;;;;;;5073344;28;20103;-56
2022/07/19 10:47:22;;;;;;;12.02;1.83;;;29.60;68.80;;;;;;5073503;28;20025;-55
2022/07/19 10:49:49;;;;;;;7.03;2.00;;;29.90;67.20;;;;;;5065107;28;20052;-55
2022/07/19 10:52:26;;;;;;;4.85;2.40;;;29.80;67.00;;;;;;5053557;28;20067;-58
2022/07/19 10:55:25;;;;;;;8.52;2.28;;;29.70;66.90;;;;;;5053193;28;20049;-56
2022/07/19 10:57:52;;;;;;;5.57;1.85;;;30.00;70.60;;;;;;5054198;28;20211;-58
2022/07/19 11:00:19;;;;;;;4.05;2.00;;;30.20;65.70;;;;;;5053362;28;20056;-56
2022/07/19 11:02:46;;;;;;;2.97;1.80;;;30.10;65.20;;;;;;5051953;28;20025;-56
2022/07/19 11:05:45;;;;;;;6.95;1.90;;;30.30;67.70;;;;;;5065209;28;20032;-56
2022/07/19 11:08:11;;;;;;;8.63;1.83;;;30.50;66.70;;;;;;5073181;28;20691;-57
2022/07/19 11:10:37;;;;;;;2.97;1.52;;;30.50;66.20;;;;;;5072758;28;20041;-57
2022/07/19 11:13:02;;;;;;;4.78;2.00;;;30.70;66.90;;;;;;5073206;28;20078;-53
2022/07/19 11:15:28;;;;;;;1.48;1.33;;;30.90;62.50;;;;;;5073095;28;20107;-55
2022/07/19 11:17:55;;;;;;;2.63;1.60;;;31.00;63.00;;;;;;5072976;28;20047;-57
2022/07/19 11:20:30;;;;;;;2.70;1.50;;;31.20;63.70;;;;;;5072554;28;20029;-57
2022/07/19 11:22:57;;;;;;;6.05;1.73;;;31.20;64.30;;;;;;5058726;28;20036;-52
2022/07/19 11:25:32;;;;;;;3.03;2.20;;;31.20;63.00;;;;;;5072740;28;20116;-57
2022/07/19 11:28:00;;;;;;;15.25;1.58;;;30.90;63.00;;;;;;5073017;28;20081;-59
2022/07/19 11:30:28;;;;;;;10.30;2.10;;;31.30;65.30;;;;;;5066515;28;20138;-55
2022/07/19 11:32:57;;;;;;;8.88;1.45;;;31.30;61.90;;;;;;5042204;28;20075;-53
2022/07/19 11:35:23;;;;;;;3.60;1.63;;;31.50;63.30;;;;;;5041708;28;20388;-56
2022/07/19 11:37:53;;;;;;;5.22;1.83;;;31.30;63.60;;;;;;5045337;28;20025;-51
2022/07/19 11:40:19;;;;;;;6.90;1.77;;;31.50;63.20;;;;;;5042375;28;20029;-55
2022/07/19 11:42:47;;;;;;;7.95;1.60;;;31.60;62.00;;;;;;5045853;28;20070;-57
2022/07/19 11:45:21;;;;;;;10.95;2.33;;;31.70;61.30;;;;;;5049811;28;22450;-55
2022/07/19 11:47:49;;;;;;;3.83;1.67;;;31.80;59.50;;;;;;5043876;28;20520;-57
2022/07/19 11:50:17;;;;;;;2.53;1.45;;;32.00;59.90;;;;;;5041862;28;20025;-56
2022/07/19 11:52:45;;;;;;;5.78;1.60;;;32.20;58.90;;;;;;5041817;28;20048;-56
2022/07/19 11:55:11;;;;;;;8.10;1.90;;;32.50;59.50;;;;;;5040935;28;20126;-56
2022/07/19 11:57:56;;;;;;;4.00;1.42;;;32.30;58.30;;;;;;5040249;28;20106;-58
2022/07/19 12:00:22;;;;;;;3.83;1.75;;;32.10;56.50;;;;;;5040329;28;20086;-54
2022/07/19 12:03:04;;;;;;;6.43;1.67;;;32.20;56.90;;;;;;5042445;28;20472;-56
2022/07/19 12:05:38;;;;;;;10.45;1.58;;;32.40;58.10;;;;;;5041971;28;20040;-57
2022/07/19 12:08:07;;;;;;;3.60;1.85;;;32.60;55.90;;;;;;5046854;28;20021;-56
2022/07/19 12:10:49;;;;;;;5.15;1.42;;;32.70;54.40;;;;;;5071880;28;20020;-57
2022/07/19 12:13:28;;;;;;;11.13;1.45;;;32.90;54.30;;;;;;5071725;28;20134;-53
2022/07/19 12:15:56;;;;;;;6.43;1.80;;;33.30;50.00;;;;;;5071501;28;20024;-53
2022/07/19 12:18:41;;;;;;;5.60;1.58;;;34.00;52.60;;;;;;5069357;28;20498;-59
2022/07/19 12:21:19;;;;;;;9.63;1.35;;;34.70;50.50;;;;;;5051820;28;20036;-56
2022/07/19 12:24:18;;;;;;;8.30;1.58;;;34.90;51.60;;;;;;5051522;28;20035;-57
2022/07/19 12:27:04;;;;;;;4.53;1.70;;;35.30;51.00;;;;;;5052037;28;20427;-54
2022/07/19 12:29:44;;;;;;;9.50;1.65;;;36.40;47.00;;;;;;5052118;28;20405;-57
2022/07/19 12:32:12;;;;;;;5.93;1.52;;;36.80;45.50;;;;;;5051673;28;20047;-55
2022/07/19 12:35:10;;;;;;;8.55;1.58;;;37.00;47.40;;;;;;5066649;28;20028;-53
2022/07/19 12:37:45;;;;;;;6.53;1.60;;;37.10;45.30;;;;;;5071548;28;20360;-53
2022/07/19 12:40:13;;;;;;;12.00;1.40;;;37.20;44.70;;;;;;5072307;28;20020;-56
2022/07/19 12:42:39;;;;;;;3.17;1.58;;;37.50;44.70;;;;;;5071720;28;20024;-54
2022/07/19 12:45:06;;;;;;;4.53;1.70;;;37.60;43.00;;;;;;5071671;28;20034;-56
2022/07/19 12:47:31;;;;;;;5.35;1.25;;;37.50;45.60;;;;;;5071559;28;20029;-55
2022/07/19 12:49:57;;;;;;;2.70;1.23;;;37.40;43.70;;;;;;5051661;28;20419;-51
2022/07/19 12:52:23;;;;;;;10.63;1.60;;;37.50;42.90;;;;;;5059383;28;20032;-55